Time;durP1;ratioP1;P1;durP2;ratioP2;P2;SDS_P1;SDS_P2;PMS_P1;PMS_P2;Temp;Humidity;BMP_temperature;BMP_pressure;BME280_temperature;BME280_humidity;BME280_pressure;Samples;Min_cycle;Max_cycle;Signal;HPM_P1;HPM_P2
2021/12/12 00:00:27;;;;;;;72.47;34.80;;;;;;;;;;5085727;28;20478;-79
2021/12/12 00:02:59;;;;;;;99.87;38.53;;;;;;;;;;5084653;28;20486;-78
2021/12/12 00:05:30;;;;;;;88.57;35.50;;;;;;;;;;5083248;28;20462;-79
2021/12/12 00:07:57;;;;;;;79.67;31.33;;;;;;;;;;5085060;28;20939;-79
2021/12/12 00:10:25;;;;;;;87.57;35.60;;;;;;;;;;5085149;28;20475;-79
2021/12/12 00:12:54;;;;;;;85.03;35.90;;;;;;;;;;5085380;28;20455;-79
2021/12/12 00:15:20;;;;;;;70.60;32.00;;;;;;;;;;5084908;28;20890;-79
2021/12/12 00:17:48;;;;;;;92.20;36.23;;;;;;;;;;5084025;28;20470;-79
2021/12/12 00:20:17;;;;;;;81.93;33.30;;;;;;;;;;5085385;28;20475;-78
2021/12/12 00:22:45;;;;;;;77.07;31.93;;;;;;;;;;5084453;28;20462;-77
2021/12/12 00:25:12;;;;;;;77.67;32.20;;;;;;;;;;5082643;28;20515;-79
2021/12/12 00:27:39;;;;;;;71.20;32.53;;;;;;;;;;5085624;28;20458;-79
2021/12/12 00:30:06;;;;;;;80.23;32.67;;;;;;;;;;5084320;28;20847;-79
2021/12/12 00:32:34;;;;;;;102.50;37.07;;;;;;;;;;5085998;28;20447;-79
2021/12/12 00:35:04;;;;;;;81.17;33.13;;;;;;;;;;5084530;28;20477;-79
2021/12/12 00:37:30;;;;;;;71.33;31.00;;;;;;;;;;5084950;28;20541;-79
2021/12/12 00:40:00;;;;;;;61.33;30.70;;;;;;;;;;5084340;28;20477;-79
2021/12/12 00:42:28;;;;;;;75.33;30.90;;;;;;;;;;5086427;28;21065;-79
2021/12/12 00:44:56;;;;;;;74.97;31.10;;;;;;;;;;5084731;28;20471;-81
2021/12/12 00:47:23;;;;;;;63.60;30.27;;;;;;;;;;5083944;28;20458;-79
2021/12/12 00:49:50;;;;;;;74.23;32.47;;;;;;;;;;5082921;28;20478;-79
2021/12/12 00:52:17;;;;;;;73.77;30.90;;;;;;;;;;5084745;28;20499;-79
2021/12/12 00:54:44;;;;;;;72.93;34.03;;;;;;;;;;5084750;28;20496;-78
2021/12/12 00:57:13;;;;;;;74.83;32.77;;;;;;;;;;5086352;28;20447;-79
2021/12/12 00:59:41;;;;;;;71.30;29.93;;;;;;;;;;5084726;28;20492;-79
2021/12/12 01:02:08;;;;;;;71.53;33.77;;;;;;;;;;5086261;28;20447;-79
2021/12/12 01:04:37;;;;;;;73.93;32.43;;;;;;;;;;5085587;28;20466;-79
2021/12/12 01:07:05;;;;;;;67.40;34.03;;;;;;;;;;5086071;28;20454;-79
2021/12/12 01:09:33;;;;;;;65.53;33.63;;;;;;;;;;5085071;28;20470;-79
2021/12/12 01:12:01;;;;;;;74.63;34.07;;;;;;;;;;5085586;28;20438;-79
2021/12/12 01:14:32;;;;;;;88.97;33.80;;;;;;;;;;5085049;28;20492;-78
2021/12/12 01:17:01;;;;;;;67.63;33.70;;;;;;;;;;5084327;28;20507;-78
2021/12/12 01:19:29;;;;;;;72.80;36.97;;;;;;;;;;5083170;28;21134;-79
2021/12/12 01:21:59;;;;;;;85.40;34.07;;;;;;;;;;5085731;28;20451;-80
2021/12/12 01:24:26;;;;;;;70.70;33.20;;;;;;;;;;5085276;28;20462;-78
2021/12/12 01:26:54;;;;;;;74.73;33.60;;;;;;;;;;5085857;28;20489;-79
2021/12/12 01:29:20;;;;;;;71.50;31.73;;;;;;;;;;5083396;28;20910;-79
2021/12/12 01:31:48;;;;;;;69.80;31.93;;;;;;;;;;5086208;28;20450;-79
2021/12/12 01:34:16;;;;;;;76.57;34.20;;;;;;;;;;5083318;28;20470;-79
2021/12/12 01:36:51;;;;;;;67.70;31.90;;;;;;;;;;5085325;28;20672;-77
2021/12/12 01:39:18;;;;;;;76.37;35.63;;;;;;;;;;5083511;28;20571;-79
2021/12/12 01:41:47;;;;;;;73.20;32.13;;;;;;;;;;5087458;28;20462;-78
2021/12/12 01:44:15;;;;;;;73.00;33.03;;;;;;;;;;5087487;28;20482;-79
2021/12/12 01:46:43;;;;;;;73.17;33.93;;;;;;;;;;5090358;28;20490;-79
2021/12/12 01:49:12;;;;;;;66.80;33.57;;;;;;;;;;5089206;28;20479;-79
2021/12/12 01:51:39;;;;;;;67.03;33.50;;;;;;;;;;5090352;28;20458;-79
2021/12/12 01:54:06;;;;;;;69.33;34.10;;;;;;;;;;5089978;28;20478;-80
2021/12/12 01:56:35;;;;;;;70.00;33.47;;;;;;;;;;5090008;28;20497;-80
2021/12/12 01:59:04;;;;;;;82.17;37.53;;;;;;;;;;5086251;28;21003;-79
2021/12/12 02:01:32;;;;;;;74.47;35.63;;;;;;;;;;5085982;28;20450;-79
2021/12/12 02:04:01;;;;;;;91.13;39.43;;;;;;;;;;5087448;28;20482;-80
2021/12/12 02:06:29;;;;;;;87.63;37.97;;;;;;;;;;5088487;28;20538;-79
2021/12/12 02:08:56;;;;;;;81.53;37.57;;;;;;;;;;5086783;28;20477;-79
2021/12/12 02:11:23;;;;;;;81.90;37.47;;;;;;;;;;5090317;28;21023;-79
2021/12/12 02:13:52;;;;;;;84.20;40.47;;;;;;;;;;5088818;28;20898;-79
2021/12/12 02:16:19;;;;;;;88.40;36.30;;;;;;;;;;5088315;28;20482;-80
2021/12/12 02:18:49;;;;;;;82.83;38.87;;;;;;;;;;5087108;28;20482;-79
2021/12/12 02:21:21;;;;;;;90.27;39.93;;;;;;;;;;5089695;28;21092;-80
2021/12/12 02:24:14;;;;;;;75.40;39.90;;;;;;;;;;5087848;28;20466;-79
2021/12/12 02:35:14;;;;;;;88.53;41.93;;;;;;;;;;5088320;28;20529;-80
2021/12/12 02:37:41;;;;;;;87.33;38.80;;;;;;;;;;5090509;28;20954;-80
2021/12/12 02:40:11;;;;;;;81.57;39.87;;;;;;;;;;5089476;28;20478;-79
2021/12/12 02:42:38;;;;;;;80.27;40.57;;;;;;;;;;5089786;28;20515;-79
2021/12/12 02:45:07;;;;;;;98.47;39.77;;;;;;;;;;5089903;28;20486;-79
2021/12/12 02:47:34;;;;;;;84.37;38.43;;;;;;;;;;5089879;28;20552;-79
2021/12/12 02:50:13;;;;;;;93.87;43.40;;;;;;;;;;5085434;28;20479;-80
2021/12/12 02:52:40;;;;;;;97.47;42.17;;;;;;;;;;5087684;28;20450;-80
2021/12/12 02:55:10;;;;;;;96.00;42.13;;;;;;;;;;5085437;28;20538;-79
2021/12/12 02:57:38;;;;;;;93.57;43.63;;;;;;;;;;5086175;28;20516;-79
2021/12/12 03:00:06;;;;;;;97.13;46.50;;;;;;;;;;5084173;28;20473;-79
2021/12/12 03:02:40;;;;;;;101.90;44.47;;;;;;;;;;5087379;28;20465;-80
2021/12/12 03:05:07;;;;;;;91.90;40.87;;;;;;;;;;5086183;28;20886;-80
2021/12/12 03:07:34;;;;;;;101.17;45.13;;;;;;;;;;5087178;28;20841;-80
2021/12/12 03:10:05;;;;;;;95.70;45.90;;;;;;;;;;5085715;28;20470;-80
2021/12/12 03:12:33;;;;;;;103.33;47.33;;;;;;;;;;5087592;28;20450;-80
2021/12/12 03:15:04;;;;;;;94.53;44.47;;;;;;;;;;5085810;28;21041;-79
2021/12/12 03:17:31;;;;;;;96.57;45.27;;;;;;;;;;5086866;28;20441;-80
2021/12/12 03:19:59;;;;;;;98.63;45.97;;;;;;;;;;5086078;28;20474;-79
2021/12/12 03:22:26;;;;;;;108.57;43.03;;;;;;;;;;5087715;28;20489;-79
2021/12/12 03:24:53;;;;;;;102.57;46.90;;;;;;;;;;5086138;28;20470;-79
2021/12/12 03:27:20;;;;;;;93.67;43.13;;;;;;;;;;5086155;28;20505;-80
2021/12/12 03:29:47;;;;;;;104.43;47.40;;;;;;;;;;5084821;28;20466;-79
2021/12/12 03:32:17;;;;;;;99.47;45.07;;;;;;;;;;5086640;28;20442;-79
2021/12/12 03:34:45;;;;;;;90.40;42.57;;;;;;;;;;5085890;28;20481;-78
2021/12/12 03:37:12;;;;;;;98.80;42.80;;;;;;;;;;5086447;28;20446;-79
2021/12/12 03:39:40;;;;;;;98.17;44.37;;;;;;;;;;5084772;28;20467;-79
2021/12/12 03:42:11;;;;;;;84.07;42.93;;;;;;;;;;5087265;28;20461;-79
2021/12/12 03:44:38;;;;;;;87.40;44.30;;;;;;;;;;5084436;28;20474;-79
2021/12/12 03:47:06;;;;;;;84.03;44.90;;;;;;;;;;5087507;28;20486;-80
2021/12/12 03:49:34;;;;;;;78.43;41.17;;;;;;;;;;5085528;28;20467;-79
2021/12/12 03:52:01;;;;;;;86.00;41.30;;;;;;;;;;5086378;28;20503;-80
2021/12/12 03:54:27;;;;;;;88.80;42.13;;;;;;;;;;5084892;28;20479;-80
2021/12/12 03:56:53;;;;;;;80.20;40.90;;;;;;;;;;5086993;28;20500;-80
2021/12/12 03:59:20;;;;;;;82.43;41.43;;;;;;;;;;5082106;28;20524;-79
2021/12/12 04:01:47;;;;;;;83.70;39.80;;;;;;;;;;5087402;28;20575;-79
2021/12/12 04:04:15;;;;;;;79.00;38.97;;;;;;;;;;5083458;28;20482;-79
2021/12/12 04:06:43;;;;;;;73.73;38.90;;;;;;;;;;5087241;28;20540;-80
2021/12/12 04:09:11;;;;;;;79.30;39.80;;;;;;;;;;5084319;28;20522;-80
2021/12/12 04:11:38;;;;;;;91.97;39.63;;;;;;;;;;5086040;28;20463;-79
2021/12/12 04:14:05;;;;;;;80.23;40.90;;;;;;;;;;5085393;28;20458;-79
2021/12/12 04:16:32;;;;;;;93.37;40.83;;;;;;;;;;5086588;28;20462;-80
2021/12/12 04:18:58;;;;;;;74.33;35.70;;;;;;;;;;5084278;28;20474;-79
2021/12/12 04:21:26;;;;;;;76.23;35.60;;;;;;;;;;5086601;28;20459;-79
2021/12/12 04:23:54;;;;;;;73.07;35.80;;;;;;;;;;5086097;28;20515;-80
2021/12/12 04:26:23;;;;;;;76.43;36.70;;;;;;;;;;5085053;28;20485;-80
2021/12/12 04:28:56;;;;;;;67.60;34.43;;;;;;;;;;5084691;28;21152;-80
2021/12/12 04:31:23;;;;;;;62.57;34.00;;;;;;;;;;5085095;28;20442;-80
2021/12/12 04:33:49;;;;;;;60.87;35.10;;;;;;;;;;5086383;28;20466;-80
2021/12/12 04:36:15;;;;;;;65.93;33.63;;;;;;;;;;5086292;28;20883;-80
2021/12/12 04:38:41;;;;;;;75.57;34.77;;;;;;;;;;5084839;28;20874;-80
2021/12/12 04:41:09;;;;;;;73.73;35.73;;;;;;;;;;5085313;28;20450;-80
2021/12/12 04:43:35;;;;;;;71.17;37.63;;;;;;;;;;5085690;28;20489;-80
2021/12/12 04:46:07;;;;;;;68.00;33.87;;;;;;;;;;5085318;28;20576;-80
2021/12/12 04:51:24;;;;;;;60.80;32.30;;;;;;;;;;5085758;28;20824;-80
2021/12/12 04:53:53;;;;;;;66.23;33.40;;;;;;;;;;5086332;28;21081;-80
2021/12/12 04:56:24;;;;;;;58.77;33.17;;;;;;;;;;5086431;28;21045;-80
2021/12/12 04:58:53;;;;;;;55.83;32.50;;;;;;;;;;5084475;28;20524;-80
2021/12/12 05:01:22;;;;;;;55.33;32.03;;;;;;;;;;5085977;28;20454;-80
2021/12/12 05:03:50;;;;;;;55.73;31.83;;;;;;;;;;5083175;28;20474;-81
2021/12/12 05:06:21;;;;;;;61.20;31.60;;;;;;;;;;5086617;28;21003;-80
2021/12/12 05:08:51;;;;;;;51.30;31.10;;;;;;;;;;5084829;28;20520;-80
2021/12/12 05:11:19;;;;;;;58.13;31.17;;;;;;;;;;5086028;28;20563;-80
2021/12/12 05:13:50;;;;;;;55.93;29.10;;;;;;;;;;5085163;28;20478;-81
2021/12/12 05:16:19;;;;;;;52.43;28.30;;;;;;;;;;5084736;28;20474;-81
2021/12/12 05:18:50;;;;;;;50.00;29.07;;;;;;;;;;5085436;28;20523;-79
2021/12/12 05:21:18;;;;;;;57.83;30.23;;;;;;;;;;5085914;28;20969;-81
2021/12/12 05:23:46;;;;;;;47.60;27.40;;;;;;;;;;5084165;28;20466;-81
2021/12/12 05:26:14;;;;;;;47.50;25.83;;;;;;;;;;5087442;28;20498;-82
2021/12/12 05:28:42;;;;;;;60.50;28.77;;;;;;;;;;5085484;28;20471;-80
2021/12/12 05:31:11;;;;;;;53.47;27.70;;;;;;;;;;5086943;28;20447;-81
2021/12/12 05:33:37;;;;;;;55.43;28.07;;;;;;;;;;5083948;28;20465;-81
2021/12/12 05:36:07;;;;;;;56.70;28.67;;;;;;;;;;5086267;28;20486;-81
2021/12/12 05:38:33;;;;;;;56.50;30.10;;;;;;;;;;5084080;28;20539;-81
2021/12/12 05:40:59;;;;;;;50.63;26.43;;;;;;;;;;5085984;28;20485;-80
2021/12/12 05:43:26;;;;;;;58.40;29.23;;;;;;;;;;5085823;28;20451;-81
2021/12/12 05:45:53;;;;;;;38.83;23.80;;;;;;;;;;5085767;28;21065;-81
2021/12/12 05:48:22;;;;;;;47.57;26.73;;;;;;;;;;5085282;28;20531;-80
2021/12/12 05:50:49;;;;;;;44.13;24.67;;;;;;;;;;5087185;28;20533;-81
2021/12/12 05:53:16;;;;;;;48.70;25.30;;;;;;;;;;5084898;28;20454;-80
2021/12/12 05:55:43;;;;;;;49.03;24.63;;;;;;;;;;5086687;28;20455;-78
2021/12/12 05:58:11;;;;;;;48.47;24.37;;;;;;;;;;5083947;28;20459;-80
2021/12/12 06:00:39;;;;;;;43.90;24.10;;;;;;;;;;5086810;28;20527;-81
2021/12/12 06:03:08;;;;;;;44.80;23.40;;;;;;;;;;5086472;28;20450;-81
2021/12/12 06:05:36;;;;;;;45.00;23.20;;;;;;;;;;5087037;28;21157;-81
2021/12/12 06:08:02;;;;;;;49.83;26.00;;;;;;;;;;5086847;28;20485;-80
2021/12/12 06:10:29;;;;;;;40.57;22.60;;;;;;;;;;5084920;28;20532;-81
2021/12/12 06:12:55;;;;;;;46.00;24.10;;;;;;;;;;5087242;28;20950;-82
2021/12/12 06:15:23;;;;;;;43.93;23.67;;;;;;;;;;5086959;28;21004;-81
2021/12/12 06:17:50;;;;;;;42.87;22.37;;;;;;;;;;5087710;28;20507;-81
2021/12/12 06:20:16;;;;;;;44.23;23.10;;;;;;;;;;5084646;28;20478;-81
2021/12/12 06:22:44;;;;;;;40.63;20.40;;;;;;;;;;5086659;28;20872;-79
2021/12/12 06:25:11;;;;;;;43.53;21.13;;;;;;;;;;5085585;28;20482;-81
2021/12/12 06:27:38;;;;;;;41.63;20.40;;;;;;;;;;5087013;28;20535;-81
2021/12/12 06:30:06;;;;;;;34.87;20.00;;;;;;;;;;5090135;28;20527;-80
2021/12/12 06:32:33;;;;;;;37.30;19.90;;;;;;;;;;5091222;28;20450;-80
2021/12/12 06:34:59;;;;;;;43.83;19.00;;;;;;;;;;5089122;28;20473;-81
2021/12/12 06:37:26;;;;;;;47.47;21.53;;;;;;;;;;5089232;28;20481;-80
2021/12/12 06:39:53;;;;;;;33.80;19.03;;;;;;;;;;5088563;28;20471;-80
2021/12/12 06:42:20;;;;;;;39.70;17.70;;;;;;;;;;5090572;28;20463;-81
2021/12/12 06:44:46;;;;;;;46.43;21.30;;;;;;;;;;5089950;28;20477;-81
2021/12/12 06:47:14;;;;;;;41.73;20.83;;;;;;;;;;5089207;28;20946;-81
2021/12/12 06:49:40;;;;;;;31.30;19.40;;;;;;;;;;5089261;28;20872;-81
2021/12/12 06:52:09;;;;;;;32.27;18.23;;;;;;;;;;5091141;28;20493;-82
2021/12/12 06:54:36;;;;;;;33.33;17.50;;;;;;;;;;5090238;28;20877;-81
2021/12/12 06:57:05;;;;;;;35.03;20.37;;;;;;;;;;5090100;28;20521;-80
2021/12/12 06:59:32;;;;;;;33.83;16.73;;;;;;;;;;5089932;28;20695;-81
2021/12/12 07:01:59;;;;;;;31.87;18.00;;;;;;;;;;5088899;28;20507;-80
2021/12/12 07:04:26;;;;;;;33.10;18.33;;;;;;;;;;5088060;28;20473;-81
2021/12/12 07:06:54;;;;;;;36.70;18.30;;;;;;;;;;5089878;28;20517;-82
2021/12/12 07:09:21;;;;;;;34.47;16.60;;;;;;;;;;5088027;28;20470;-81
2021/12/12 07:11:48;;;;;;;29.20;16.43;;;;;;;;;;5090473;28;20935;-81
2021/12/12 07:14:16;;;;;;;28.57;17.60;;;;;;;;;;5091051;28;21034;-81
2021/12/12 07:16:43;;;;;;;33.40;17.00;;;;;;;;;;5090353;28;20478;-79
2021/12/12 07:19:10;;;;;;;33.73;17.23;;;;;;;;;;5089873;28;20481;-81
2021/12/12 07:21:37;;;;;;;28.43;15.30;;;;;;;;;;5092332;28;20449;-81
2021/12/12 07:24:05;;;;;;;26.37;15.67;;;;;;;;;;5090066;28;20466;-81
2021/12/12 07:26:31;;;;;;;26.97;15.27;;;;;;;;;;5088429;28;20476;-81
2021/12/12 07:29:00;;;;;;;27.80;14.10;;;;;;;;;;5087601;28;20485;-81
2021/12/12 07:31:29;;;;;;;23.87;14.33;;;;;;;;;;5086768;28;20480;-82
2021/12/12 07:33:57;;;;;;;25.10;13.90;;;;;;;;;;5085588;28;20482;-81
2021/12/12 07:36:24;;;;;;;23.73;13.77;;;;;;;;;;5086274;28;20474;-81
2021/12/12 07:38:53;;;;;;;23.23;15.43;;;;;;;;;;5084016;28;20470;-81
2021/12/12 07:41:20;;;;;;;20.40;13.30;;;;;;;;;;5086785;28;20708;-81
2021/12/12 07:43:47;;;;;;;20.97;14.00;;;;;;;;;;5086526;28;20992;-80
2021/12/12 07:46:13;;;;;;;22.80;13.90;;;;;;;;;;5086188;28;20511;-81
2021/12/12 07:48:43;;;;;;;23.07;14.03;;;;;;;;;;5085196;28;20473;-81
2021/12/12 07:51:09;;;;;;;20.10;13.87;;;;;;;;;;5086886;28;20528;-81
2021/12/12 07:53:36;;;;;;;24.10;12.00;;;;;;;;;;5087305;28;20524;-81
2021/12/12 07:56:02;;;;;;;22.67;14.90;;;;;;;;;;5086002;28;20485;-81
2021/12/12 07:58:28;;;;;;;14.43;12.50;;;;;;;;;;5086118;28;20486;-81
2021/12/12 08:00:57;;;;;;;21.07;13.00;;;;;;;;;;5086788;28;20438;-81
2021/12/12 08:03:24;;;;;;;16.80;12.30;;;;;;;;;;5085618;28;20476;-81
2021/12/12 08:05:51;;;;;;;27.10;14.20;;;;;;;;;;5084621;28;20511;-81
2021/12/12 08:08:18;;;;;;;18.57;12.90;;;;;;;;;;5084565;28;20489;-81
2021/12/12 08:10:46;;;;;;;19.50;13.30;;;;;;;;;;5087204;28;20451;-81
2021/12/12 08:13:14;;;;;;;17.93;11.87;;;;;;;;;;5086983;28;20459;-81
2021/12/12 08:15:41;;;;;;;15.30;11.67;;;;;;;;;;5086587;28;20473;-81
2021/12/12 08:18:08;;;;;;;19.97;14.13;;;;;;;;;;5085038;28;20439;-81
2021/12/12 08:20:35;;;;;;;26.07;12.90;;;;;;;;;;5085309;28;20469;-81
2021/12/12 08:23:04;;;;;;;16.03;11.27;;;;;;;;;;5085152;28;20454;-81
2021/12/12 08:25:31;;;;;;;18.97;11.50;;;;;;;;;;5085959;28;20470;-81
2021/12/12 08:28:00;;;;;;;16.63;11.60;;;;;;;;;;5085211;28;20982;-80
2021/12/12 08:30:27;;;;;;;12.83;10.43;;;;;;;;;;5084082;28;21026;-81
2021/12/12 08:32:55;;;;;;;13.87;11.53;;;;;;;;;;5084666;28;20451;-81
2021/12/12 08:35:22;;;;;;;15.60;10.50;;;;;;;;;;5084733;28;20482;-81
2021/12/12 08:37:49;;;;;;;14.77;11.13;;;;;;;;;;5085237;28;20455;-81
2021/12/12 08:40:19;;;;;;;20.87;10.50;;;;;;;;;;5085406;28;20481;-80
2021/12/12 08:42:45;;;;;;;15.10;10.90;;;;;;;;;;5085094;28;20453;-80
2021/12/12 08:45:13;;;;;;;13.67;10.23;;;;;;;;;;5085134;28;20473;-81
2021/12/12 08:47:40;;;;;;;15.03;11.57;;;;;;;;;;5100578;22;20490;-84
2021/12/12 08:50:08;;;;;;;19.37;12.03;;;;;;;;;;5084179;28;20526;-82
2021/12/12 08:52:39;;;;;;;11.73;9.90;;;;;;;;;;5086850;28;20499;-84
2021/12/12 08:55:08;;;;;;;13.30;10.03;;;;;;;;;;5085781;28;20474;-84
2021/12/12 08:57:45;;;;;;;12.70;10.60;;;;;;;;;;5087872;28;20552;-83
2021/12/12 09:00:15;;;;;;;13.53;10.17;;;;;;;;;;5084169;28;20477;-84
2021/12/12 09:02:42;;;;;;;15.53;11.40;;;;;;;;;;5084246;28;20483;-84
2021/12/12 09:05:10;;;;;;;14.50;11.33;;;;;;;;;;5083375;28;20502;-84
2021/12/12 09:07:39;;;;;;;14.93;11.57;;;;;;;;;;5087029;28;20498;-84
2021/12/12 09:10:07;;;;;;;14.43;11.17;;;;;;;;;;5086641;28;20466;-83
2021/12/12 09:12:38;;;;;;;23.00;15.77;;;;;;;;;;5085841;28;20474;-83
2021/12/12 09:15:08;;;;;;;22.50;16.20;;;;;;;;;;5086759;28;20504;-84
2021/12/12 09:17:37;;;;;;;15.87;11.80;;;;;;;;;;5086527;28;20504;-84
2021/12/12 09:20:05;;;;;;;19.20;14.60;;;;;;;;;;5085321;28;20998;-84
2021/12/12 09:22:33;;;;;;;17.70;15.37;;;;;;;;;;5086028;28;20459;-83
2021/12/12 09:25:02;;;;;;;34.13;30.43;;;;;;;;;;5083447;28;20479;-84
2021/12/12 09:27:31;;;;;;;23.43;17.97;;;;;;;;;;5086828;28;20499;-84
2021/12/12 09:30:01;;;;;;;22.90;17.17;;;;;;;;;;5086082;28;20474;-84
2021/12/12 09:32:30;;;;;;;14.50;12.47;;;;;;;;;;5086906;28;20450;-84
2021/12/12 09:34:59;;;;;;;25.20;22.57;;;;;;;;;;5086710;28;20471;-83
2021/12/12 09:37:28;;;;;;;18.47;15.30;;;;;;;;;;5086597;28;20473;-84
2021/12/12 09:39:56;;;;;;;19.00;12.90;;;;;;;;;;5084531;28;20471;-83
2021/12/12 09:42:32;;;;;;;16.97;11.67;;;;;;;;;;5086901;28;20462;-83
2021/12/12 09:45:07;;;;;;;17.23;13.77;;;;;;;;;;5086095;28;20929;-84
2021/12/12 09:47:58;;;;;;;17.63;14.20;;;;;;;;;;5084180;28;20477;-83
2021/12/12 09:53:22;;;;;;;21.90;14.20;;;;;;;;;;5086045;28;20437;-83
2021/12/12 09:55:51;;;;;;;17.07;13.10;;;;;;;;;;5086034;28;20537;-83
2021/12/12 09:58:23;;;;;;;19.97;15.00;;;;;;;;;;5085403;28;20465;-84
2021/12/12 10:00:57;;;;;;;18.77;15.00;;;;;;;;;;5086314;28;20447;-83
2021/12/12 10:03:27;;;;;;;16.43;13.57;;;;;;;;;;5087663;28;20504;-83
2021/12/12 10:05:55;;;;;;;19.00;14.30;;;;;;;;;;5090751;28;20469;-83
2021/12/12 10:08:28;;;;;;;18.03;13.80;;;;;;;;;;5088767;28;20486;-84
2021/12/12 10:10:58;;;;;;;20.17;15.27;;;;;;;;;;5089585;28;20465;-84
2021/12/12 10:13:26;;;;;;;19.53;15.20;;;;;;;;;;5089318;28;20459;-83
2021/12/12 10:16:03;;;;;;;17.33;13.97;;;;;;;;;;5090344;28;20481;-83
2021/12/12 10:18:35;;;;;;;20.00;16.00;;;;;;;;;;5088991;28;20551;-84
2021/12/12 10:21:04;;;;;;;20.70;15.17;;;;;;;;;;5090685;28;20461;-83
2021/12/12 10:23:41;;;;;;;21.40;15.83;;;;;;;;;;5087567;28;20466;-83
2021/12/12 10:26:10;;;;;;;21.63;15.47;;;;;;;;;;5090058;28;20488;-84
2021/12/12 10:28:41;;;;;;;20.27;15.63;;;;;;;;;;5087609;28;20481;-83
2021/12/12 10:31:17;;;;;;;22.40;16.67;;;;;;;;;;5088767;28;20489;-84
2021/12/12 10:33:46;;;;;;;20.17;15.83;;;;;;;;;;5089668;28;20470;-83
2021/12/12 10:36:16;;;;;;;19.43;14.50;;;;;;;;;;5089078;28;20489;-84
2021/12/12 10:38:46;;;;;;;26.10;18.50;;;;;;;;;;5088728;28;20546;-83
2021/12/12 10:41:16;;;;;;;25.53;18.00;;;;;;;;;;5089155;28;20466;-84
2021/12/12 10:43:50;;;;;;;27.47;17.90;;;;;;;;;;5087670;28;20461;-83
2021/12/12 10:46:21;;;;;;;23.53;16.73;;;;;;;;;;5089287;28;20457;-84
2021/12/12 10:48:57;;;;;;;24.03;16.80;;;;;;;;;;5088249;28;20477;-83
2021/12/12 10:51:23;;;;;;;23.40;19.27;;;;;;;;;;5086446;28;20998;-83
2021/12/12 10:53:57;;;;;;;29.13;19.33;;;;;;;;;;5089025;28;20535;-84
2021/12/12 10:56:27;;;;;;;28.87;19.43;;;;;;;;;;5088630;28;20446;-83
2021/12/12 10:58:54;;;;;;;25.50;19.97;;;;;;;;;;5089586;28;20528;-84
2021/12/12 11:01:23;;;;;;;25.00;18.73;;;;;;;;;;5087380;28;20488;-83
2021/12/12 11:03:52;;;;;;;25.67;19.53;;;;;;;;;;5087344;28;20465;-84
2021/12/12 11:06:23;;;;;;;24.70;18.97;;;;;;;;;;5089100;28;20445;-83
2021/12/12 11:08:52;;;;;;;23.67;17.80;;;;;;;;;;5087446;28;20883;-83
2021/12/12 11:11:21;;;;;;;25.20;20.83;;;;;;;;;;5088813;28;20449;-84
2021/12/12 11:13:51;;;;;;;26.13;19.93;;;;;;;;;;5087680;28;20474;-83
2021/12/12 11:16:18;;;;;;;33.03;21.23;;;;;;;;;;5089335;28;20450;-83
2021/12/12 11:18:48;;;;;;;27.20;20.87;;;;;;;;;;5089039;28;20481;-84
2021/12/12 11:21:17;;;;;;;28.97;19.60;;;;;;;;;;5087069;28;20462;-83
2021/12/12 11:23:44;;;;;;;29.03;20.37;;;;;;;;;;5088780;28;20466;-84
2021/12/12 11:26:12;;;;;;;31.93;23.10;;;;;;;;;;5089028;28;20506;-84
2021/12/12 11:28:39;;;;;;;31.30;22.60;;;;;;;;;;5088287;28;20473;-84
2021/12/12 11:31:07;;;;;;;39.90;27.50;;;;;;;;;;5089393;28;20446;-84
2021/12/12 11:33:35;;;;;;;34.47;25.07;;;;;;;;;;5088841;28;20518;-84
2021/12/12 11:36:04;;;;;;;33.57;24.50;;;;;;;;;;5090183;28;20910;-83
2021/12/12 11:38:37;;;;;;;36.33;25.90;;;;;;;;;;5088425;28;20519;-83
2021/12/12 11:41:05;;;;;;;34.47;23.70;;;;;;;;;;5088258;28;20442;-84
2021/12/12 11:43:34;;;;;;;36.17;24.83;;;;;;;;;;5087745;28;20469;-84
2021/12/12 11:46:02;;;;;;;30.97;23.57;;;;;;;;;;5088757;28;20480;-84
2021/12/12 11:48:30;;;;;;;29.07;22.97;;;;;;;;;;5087438;28;20890;-84
2021/12/12 11:50:57;;;;;;;33.00;23.10;;;;;;;;;;5087926;28;20455;-84
2021/12/12 11:53:34;;;;;;;30.53;22.97;;;;;;;;;;5087667;28;20497;-84
2021/12/12 11:56:02;;;;;;;31.13;19.90;;;;;;;;;;5088019;28;21004;-84
2021/12/12 11:58:31;;;;;;;29.93;21.70;;;;;;;;;;5087780;28;20516;-84
2021/12/12 12:01:01;;;;;;;31.60;21.00;;;;;;;;;;5087664;28;21045;-84
2021/12/12 12:03:33;;;;;;;32.63;23.33;;;;;;;;;;5087091;28;20458;-83
2021/12/12 12:06:10;;;;;;;33.17;23.30;;;;;;;;;;5088536;28;20523;-85
2021/12/12 12:08:41;;;;;;;31.23;22.43;;;;;;;;;;5083629;28;20597;-84
2021/12/12 12:11:18;;;;;;;29.00;20.63;;;;;;;;;;5087345;28;20455;-84
2021/12/12 12:13:53;;;;;;;31.00;21.27;;;;;;;;;;5087419;28;21000;-83
2021/12/12 12:16:28;;;;;;;28.53;19.30;;;;;;;;;;5086676;28;20512;-86
2021/12/12 12:19:00;;;;;;;28.53;18.77;;;;;;;;;;5083306;28;20565;-86
2021/12/12 12:21:30;;;;;;;29.20;19.07;;;;;;;;;;5084767;28;20847;-86
2021/12/12 12:26:55;;;;;;;26.97;19.20;;;;;;;;;;5083125;28;20811;-85
2021/12/12 12:29:40;;;;;;;27.57;18.17;;;;;;;;;;5081723;28;21033;-86
2021/12/12 12:32:30;;;;;;;24.80;14.30;;;;;;;;;;5085462;28;21034;-86
2021/12/12 12:35:35;;;;;;;20.30;15.50;;;;;;;;;;5084841;28;20470;-87
2021/12/12 12:38:31;;;;;;;24.20;15.57;;;;;;;;;;5085938;28;20987;-86
2021/12/12 12:41:18;;;;;;;21.30;15.17;;;;;;;;;;5084998;28;20481;-86
2021/12/12 12:44:03;;;;;;;25.73;15.50;;;;;;;;;;5078620;28;20488;-86
2021/12/12 12:46:50;;;;;;;28.93;14.73;;;;;;;;;;5084667;28;20519;-86
2021/12/12 12:49:35;;;;;;;24.13;15.90;;;;;;;;;;5082146;28;20478;-87
2021/12/12 12:52:20;;;;;;;25.83;15.00;;;;;;;;;;5084237;28;20524;-87
2021/12/12 12:55:08;;;;;;;28.70;15.83;;;;;;;;;;5084690;28;20477;-87
2021/12/12 12:57:38;;;;;;;28.67;16.97;;;;;;;;;;5084262;28;20470;-86
2021/12/12 13:00:09;;;;;;;24.40;14.60;;;;;;;;;;5083785;28;21047;-88
2021/12/12 13:02:49;;;;;;;20.10;14.07;;;;;;;;;;5084077;28;21021;-86
2021/12/12 13:05:30;;;;;;;22.80;16.57;;;;;;;;;;5084733;28;20862;-87
2021/12/12 13:08:31;;;;;;;21.83;14.70;;;;;;;;;;5083865;28;20510;-87
2021/12/12 13:10:59;;;;;;;19.87;12.97;;;;;;;;;;5085282;28;20462;-86
2021/12/12 13:13:30;;;;;;;20.40;13.77;;;;;;;;;;5085384;28;20461;-87
2021/12/12 13:15:59;;;;;;;22.10;13.83;;;;;;;;;;5085850;28;20462;-86
2021/12/12 13:18:34;;;;;;;21.57;14.80;;;;;;;;;;5083433;28;20893;-87
2021/12/12 13:21:06;;;;;;;24.77;15.33;;;;;;;;;;5086567;28;20449;-86
2021/12/12 13:23:40;;;;;;;24.40;13.20;;;;;;;;;;5085455;28;20543;-86
2021/12/12 13:26:07;;;;;;;23.13;14.17;;;;;;;;;;5086181;28;20465;-87
2021/12/12 13:28:52;;;;;;;22.00;13.67;;;;;;;;;;5083891;28;20474;-86
2021/12/12 13:31:21;;;;;;;14.90;11.87;;;;;;;;;;5085279;28;20466;-86
2021/12/12 13:33:51;;;;;;;21.20;11.63;;;;;;;;;;5083606;28;20465;-87
2021/12/12 13:36:30;;;;;;;24.40;14.27;;;;;;;;;;5084377;28;20465;-86
2021/12/12 13:39:04;;;;;;;22.60;15.10;;;;;;;;;;5082773;28;21050;-86
2021/12/12 13:41:39;;;;;;;18.70;11.97;;;;;;;;;;5082450;28;20466;-87
2021/12/12 13:44:12;;;;;;;19.03;12.50;;;;;;;;;;5083444;28;20472;-86
2021/12/12 13:46:43;;;;;;;22.83;14.03;;;;;;;;;;5087059;28;20943;-84
2021/12/12 13:49:13;;;;;;;23.60;13.23;;;;;;;;;;5085450;28;20473;-87
2021/12/12 13:51:44;;;;;;;19.37;13.47;;;;;;;;;;5084940;28;20464;-84
2021/12/12 13:54:14;;;;;;;18.67;14.27;;;;;;;;;;5085703;28;20477;-85
2021/12/12 13:56:47;;;;;;;15.83;12.20;;;;;;;;;;5086112;28;20853;-83
2021/12/12 13:59:20;;;;;;;16.50;11.77;;;;;;;;;;5086369;28;20463;-84
2021/12/12 14:01:52;;;;;;;20.97;14.00;;;;;;;;;;5086293;28;20489;-85
2021/12/12 14:04:22;;;;;;;22.57;14.33;;;;;;;;;;5085359;28;20470;-85
2021/12/12 14:06:50;;;;;;;19.23;13.23;;;;;;;;;;5087823;28;20434;-84
2021/12/12 14:09:18;;;;;;;20.57;12.90;;;;;;;;;;5085681;28;20830;-84
2021/12/12 14:11:48;;;;;;;19.97;13.63;;;;;;;;;;5087458;28;20484;-84
2021/12/12 14:14:20;;;;;;;18.50;14.13;;;;;;;;;;5084949;28;20467;-84
2021/12/12 14:16:50;;;;;;;19.07;13.97;;;;;;;;;;5087174;28;20507;-84
2021/12/12 14:19:17;;;;;;;20.60;13.20;;;;;;;;;;5084044;28;20587;-85
2021/12/12 14:21:46;;;;;;;20.10;14.00;;;;;;;;;;5086331;28;20515;-84
2021/12/12 14:24:13;;;;;;;21.30;15.10;;;;;;;;;;5084377;28;21021;-84
2021/12/12 14:26:42;;;;;;;20.60;15.37;;;;;;;;;;5085458;28;20466;-85
2021/12/12 14:29:12;;;;;;;21.07;12.63;;;;;;;;;;5084776;28;20482;-85
2021/12/12 14:31:44;;;;;;;20.73;13.63;;;;;;;;;;5085421;28;20506;-85
2021/12/12 14:34:12;;;;;;;16.33;13.23;;;;;;;;;;5083589;28;20462;-84
2021/12/12 14:36:42;;;;;;;18.20;12.40;;;;;;;;;;5085557;28;20442;-84
2021/12/12 14:39:08;;;;;;;20.37;13.73;;;;;;;;;;5083624;28;20485;-84
2021/12/12 14:41:37;;;;;;;19.93;12.97;;;;;;;;;;5081677;28;21029;-87
2021/12/12 14:44:05;;;;;;;19.73;13.63;;;;;;;;;;5080405;28;20462;-87
2021/12/12 14:46:34;;;;;;;19.60;14.93;;;;;;;;;;5081561;28;20454;-87